Time;durP1;ratioP1;P1;durP2;ratioP2;P2;SDS_P1;SDS_P2;PMS_P1;PMS_P2;Temp;Humidity;BMP_temperature;BMP_pressure;BME280_temperature;BME280_humidity;BME280_pressure;Samples;Min_cycle;Max_cycle;Signal;HPM_P1;HPM_P2
2022/08/15 00:01:36;;;;;;;2.70;2.03;;;25.40;68.80;;;;;;5093601;28;20034;-73
2022/08/15 00:04:04;;;;;;;4.03;1.92;;;25.40;68.50;;;;;;5079248;28;20069;-73
2022/08/15 00:06:39;;;;;;;14.23;2.20;;;25.40;68.90;;;;;;5093271;28;20028;-72
2022/08/15 00:09:09;;;;;;;3.78;2.40;;;25.50;68.70;;;;;;5093289;28;20052;-74
2022/08/15 00:11:40;;;;;;;4.07;1.90;;;25.70;68.40;;;;;;5093016;28;20032;-73
2022/08/15 00:14:11;;;;;;;8.70;2.05;;;25.50;68.60;;;;;;5093483;28;20096;-73
2022/08/15 00:16:39;;;;;;;5.07;2.35;;;25.50;68.70;;;;;;5092734;28;20028;-72
2022/08/15 00:19:09;;;;;;;3.97;1.85;;;25.30;69.00;;;;;;5093358;28;20023;-73
2022/08/15 00:21:41;;;;;;;5.13;2.20;;;25.40;69.30;;;;;;5091905;28;20028;-73
2022/08/15 00:24:08;;;;;;;;;;;25.30;69.20;;;;;;5093727;28;20464;-74
2022/08/15 00:26:34;;;;;;;11.30;2.42;;;25.40;69.20;;;;;;5092820;28;19912;-72
2022/08/15 00:29:03;;;;;;;7.50;2.35;;;25.50;69.30;;;;;;5091680;28;20290;-72
2022/08/15 00:31:31;;;;;;;6.43;2.33;;;25.40;69.20;;;;;;5093039;28;20047;-74
2022/08/15 00:33:59;;;;;;;7.82;2.50;;;25.50;69.50;;;;;;5093046;28;20031;-73
2022/08/15 00:36:25;;;;;;;7.82;2.47;;;25.30;69.70;;;;;;5093043;28;20475;-74
2022/08/15 00:38:52;;;;;;;7.68;2.17;;;25.20;70.00;;;;;;5092872;28;20020;-73
2022/08/15 00:44:07;;;;;;;7.65;2.15;;;25.00;70.50;;;;;;5092045;28;20047;-73
2022/08/15 00:46:34;;;;;;;10.77;2.70;;;25.00;71.00;;;;;;5084943;28;20493;-74
2022/08/15 00:49:00;;;;;;;7.80;2.53;;;24.90;71.20;;;;;;5091554;28;20028;-70
2022/08/15 00:51:35;;;;;;;8.23;2.65;;;25.00;71.30;;;;;;5092963;28;20042;-74
2022/08/15 00:54:05;;;;;;;7.28;2.70;;;25.00;71.30;;;;;;5092667;28;20024;-72
2022/08/15 00:56:42;;;;;;;7.50;2.42;;;25.10;71.20;;;;;;5084098;28;20261;-73
2022/08/15 00:59:11;;;;;;;5.35;2.58;;;25.20;71.00;;;;;;5091470;28;20043;-73
2022/08/15 01:01:39;;;;;;;3.80;2.40;;;25.20;70.80;;;;;;5093899;28;20020;-73
2022/08/15 01:04:09;;;;;;;2.83;2.05;;;25.30;70.80;;;;;;5095182;28;20027;-73
2022/08/15 01:06:37;;;;;;;5.65;2.40;;;25.40;70.70;;;;;;5096858;28;20020;-73
2022/08/15 01:09:06;;;;;;;6.55;2.75;;;25.10;71.00;;;;;;5096614;28;20035;-68
2022/08/15 01:11:36;;;;;;;5.57;2.38;;;24.80;72.00;;;;;;5095566;28;20039;-72
2022/08/15 01:14:07;;;;;;;11.27;2.20;;;25.10;71.90;;;;;;5096522;28;20016;-72
2022/08/15 01:16:38;;;;;;;7.90;2.42;;;25.40;71.60;;;;;;5096481;28;20046;-69
2022/08/15 01:19:18;;;;;;;3.58;2.28;;;25.30;71.90;;;;;;5095374;28;20023;-69
2022/08/15 01:21:49;;;;;;;6.10;2.28;;;25.40;71.50;;;;;;5095245;28;20035;-73
2022/08/15 01:24:39;;;;;;;3.30;2.33;;;25.40;72.10;;;;;;5095021;28;20032;-71
2022/08/15 01:27:06;;;;;;;8.68;2.10;;;25.40;71.60;;;;;;5094695;28;20067;-73
2022/08/15 01:29:32;;;;;;;5.00;2.35;;;25.50;72.00;;;;;;5096545;28;20507;-72
2022/08/15 01:31:58;;;;;;;6.70;2.63;;;25.60;71.70;;;;;;5096473;28;20027;-68
2022/08/15 01:34:24;;;;;;;11.05;2.58;;;25.60;71.90;;;;;;5079122;28;20496;-69
2022/08/15 01:36:51;;;;;;;10.07;2.40;;;25.80;71.20;;;;;;5087293;28;20028;-70
2022/08/15 01:39:32;;;;;;;11.02;2.45;;;25.70;71.50;;;;;;5094655;28;20165;-69
2022/08/15 01:42:09;;;;;;;8.70;2.38;;;25.40;73.00;;;;;;5096372;28;20043;-69
2022/08/15 01:44:42;;;;;;;10.45;3.15;;;24.80;75.20;;;;;;5094761;28;20024;-68
2022/08/15 01:47:23;;;;;;;8.52;2.47;;;24.40;77.40;;;;;;5094803;28;20080;-70
2022/08/15 01:50:02;;;;;;;7.32;2.92;;;24.10;80.70;;;;;;5094877;28;20023;-68
2022/08/15 01:52:44;;;;;;;8.45;2.95;;;24.00;89.10;;;;;;5095819;28;20035;-70
2022/08/15 01:55:11;;;;;;;7.88;3.30;;;23.60;95.60;;;;;;5094599;28;20074;-69
2022/08/15 01:57:37;;;;;;;13.80;3.88;;;23.00;99.90;;;;;;5095927;28;20500;-70
2022/08/15 02:00:06;;;;;;;5.80;3.88;;;22.70;99.90;;;;;;5094376;28;20115;-69
2022/08/15 02:02:39;;;;;;;12.20;4.45;;;22.60;99.90;;;;;;5095843;28;20040;-71
2022/08/15 02:05:05;;;;;;;11.85;4.93;;;22.20;99.90;;;;;;5094327;28;20396;-73
2022/08/15 02:07:31;;;;;;;14.52;3.85;;;22.10;99.90;;;;;;5094297;28;20032;-70
2022/08/15 02:09:57;;;;;;;33.33;7.90;;;21.40;99.90;;;;;;5094164;28;20123;-69
2022/08/15 02:12:30;;;;;;;9.25;3.40;;;21.00;99.90;;;;;;5094341;28;20067;-70
2022/08/15 02:14:58;;;;;;;9.73;3.22;;;20.60;99.90;;;;;;5093229;28;20555;-69
2022/08/15 02:17:24;;;;;;;13.07;3.83;;;20.80;99.90;;;;;;5094445;28;20101;-71
2022/08/15 02:19:51;;;;;;;11.27;4.32;;;21.00;99.90;;;;;;5095383;28;20064;-70
2022/08/15 02:22:21;;;;;;;12.45;3.25;;;21.00;99.90;;;;;;5094055;28;20028;-69
2022/08/15 02:24:48;;;;;;;7.82;3.72;;;21.20;99.90;;;;;;5095664;28;20039;-68
2022/08/15 02:27:15;;;;;;;9.13;4.97;;;20.90;99.90;;;;;;5095290;28;20536;-70
2022/08/15 02:29:42;;;;;;;7.53;4.53;;;20.80;99.90;;;;;;5093921;28;20408;-72
2022/08/15 02:32:15;;;;;;;13.35;5.18;;;20.80;99.90;;;;;;5093989;28;20039;-72
2022/08/15 02:34:44;;;;;;;9.43;5.65;;;20.90;99.90;;;;;;5093745;28;20032;-72
2022/08/15 02:37:11;;;;;;;9.40;5.55;;;20.60;99.90;;;;;;5093499;28;20028;-71
2022/08/15 02:39:38;;;;;;;7.70;5.43;;;20.70;99.90;;;;;;5093917;28;20035;-71
2022/08/15 02:42:04;;;;;;;10.20;5.30;;;20.60;99.90;;;;;;5093550;28;20490;-73
2022/08/15 02:44:30;;;;;;;11.38;5.72;;;20.70;99.90;;;;;;5077159;28;20111;-74
2022/08/15 02:47:01;;;;;;;12.57;5.07;;;20.80;99.90;;;;;;5093646;28;20016;-70
2022/08/15 02:49:27;;;;;;;13.85;5.10;;;20.90;99.90;;;;;;5093678;28;20049;-72
2022/08/15 02:51:54;;;;;;;12.13;6.18;;;20.60;99.90;;;;;;5093303;28;20059;-71
2022/08/15 02:54:26;;;;;;;10.07;6.05;;;20.80;99.90;;;;;;5093417;28;20017;-71
2022/08/15 02:56:54;;;;;;;14.43;6.18;;;20.90;99.90;;;;;;5093401;28;20055;-70
2022/08/15 02:59:21;;;;;;;17.08;5.50;;;20.70;99.90;;;;;;5093587;28;20047;-69
2022/08/15 03:01:47;;;;;;;11.55;5.78;;;20.90;99.90;;;;;;5094798;28;20039;-71
2022/08/15 03:04:19;;;;;;;11.93;5.20;;;21.10;99.90;;;;;;5092983;28;20131;-69
2022/08/15 03:06:46;;;;;;;17.10;6.40;;;21.10;99.90;;;;;;5092928;28;20016;-70
2022/08/15 03:09:15;;;;;;;11.88;5.97;;;21.20;99.90;;;;;;5093364;28;20506;-71
2022/08/15 03:11:55;;;;;;;12.75;5.72;;;21.20;99.90;;;;;;5092996;28;20024;-68
2022/08/15 03:14:22;;;;;;;12.40;6.65;;;21.10;99.90;;;;;;5093391;28;20551;-71
2022/08/15 03:16:49;;;;;;;10.07;6.22;;;21.10;99.90;;;;;;5092808;28;20023;-69
2022/08/15 03:19:25;;;;;;;14.23;6.68;;;21.00;99.90;;;;;;5093132;28;20024;-70
2022/08/15 03:21:51;;;;;;;13.35;7.18;;;21.40;99.90;;;;;;5092747;28;20016;-69
2022/08/15 03:24:19;;;;;;;13.52;6.63;;;21.60;99.90;;;;;;5093134;28;20016;-68
2022/08/15 03:26:46;;;;;;;11.13;6.80;;;21.80;99.90;;;;;;5092753;28;20035;-71
2022/08/15 03:29:16;;;;;;;10.13;7.78;;;22.10;99.90;;;;;;5092466;28;20036;-69
2022/08/15 03:31:49;;;;;;;13.15;7.40;;;22.20;99.90;;;;;;5092835;28;20024;-68
2022/08/15 03:34:21;;;;;;;10.95;7.28;;;22.40;99.90;;;;;;5092730;28;20030;-68
2022/08/15 03:36:48;;;;;;;9.87;7.33;;;22.40;99.90;;;;;;5092764;28;20020;-71
2022/08/15 03:39:15;;;;;;;13.45;7.30;;;21.80;99.90;;;;;;5092578;28;20276;-69
2022/08/15 03:41:43;;;;;;;9.32;7.25;;;21.50;99.90;;;;;;5093886;28;20028;-69
2022/08/15 03:44:11;;;;;;;12.65;7.55;;;21.10;99.90;;;;;;5093796;28;20460;-69
2022/08/15 03:46:38;;;;;;;13.07;7.45;;;20.90;99.90;;;;;;5092559;28;20027;-69
2022/08/15 03:49:04;;;;;;;14.30;7.72;;;20.70;99.90;;;;;;5092140;28;20062;-69
2022/08/15 03:51:33;;;;;;;11.88;7.40;;;20.50;99.90;;;;;;5076003;28;20036;-69
2022/08/15 03:54:10;;;;;;;12.75;6.82;;;20.60;99.90;;;;;;5092222;28;20077;-69
2022/08/15 03:56:36;;;;;;;12.55;7.85;;;20.70;99.90;;;;;;5092302;28;20471;-68
2022/08/15 03:59:06;;;;;;;14.55;7.60;;;20.70;99.90;;;;;;5092402;28;20020;-70
2022/08/15 04:01:35;;;;;;;17.65;7.05;;;20.70;99.90;;;;;;5087432;28;20477;-73
2022/08/15 04:04:04;;;;;;;17.55;7.25;;;20.70;99.90;;;;;;5086452;28;20122;-71
2022/08/15 04:06:40;;;;;;;13.95;7.63;;;21.00;99.90;;;;;;5093127;28;20020;-74
2022/08/15 04:09:06;;;;;;;9.07;6.75;;;21.00;99.90;;;;;;5092156;28;20020;-71
2022/08/15 04:11:32;;;;;;;13.95;6.43;;;21.00;99.90;;;;;;5092310;28;20024;-73
2022/08/15 04:13:58;;;;;;;15.40;6.82;;;21.30;99.90;;;;;;5093152;28;20095;-72
2022/08/15 04:16:25;;;;;;;9.23;6.45;;;21.30;99.90;;;;;;5091790;28;20020;-70
2022/08/15 04:18:52;;;;;;;11.93;6.25;;;21.50;99.90;;;;;;5091777;28;20043;-73
2022/08/15 04:21:18;;;;;;;9.40;6.70;;;21.40;99.90;;;;;;5091956;28;20028;-73
2022/08/15 04:23:45;;;;;;;13.40;5.90;;;21.30;99.90;;;;;;5091745;28;20016;-69
2022/08/15 04:26:14;;;;;;;8.10;6.28;;;21.30;99.90;;;;;;5091835;28;20028;-68
2022/08/15 04:28:40;;;;;;;12.60;5.47;;;21.20;99.90;;;;;;5092781;28;20089;-68
2022/08/15 04:31:09;;;;;;;14.68;6.05;;;21.10;99.90;;;;;;5093117;28;20048;-68
2022/08/15 04:33:36;;;;;;;10.70;6.50;;;21.00;99.90;;;;;;5091449;28;20024;-70
2022/08/15 04:36:09;;;;;;;14.23;6.18;;;21.20;99.90;;;;;;5091451;28;20027;-73
2022/08/15 04:38:41;;;;;;;9.02;5.13;;;21.00;99.90;;;;;;5091648;28;20060;-69
2022/08/15 04:41:08;;;;;;;;;;;20.90;99.90;;;;;;5092195;28;20384;-71
2022/08/15 04:43:36;;;;;;;13.48;5.05;;;20.90;99.90;;;;;;5092606;28;20363;-69
2022/08/15 04:46:05;;;;;;;;;;;20.80;99.90;;;;;;5093043;28;20058;-68
2022/08/15 04:48:31;;;;;;;13.13;5.95;;;20.80;99.90;;;;;;5091038;28;19908;-68
2022/08/15 04:50:59;;;;;;;10.73;6.43;;;20.80;99.90;;;;;;5091504;28;20035;-69
2022/08/15 04:53:28;;;;;;;10.20;5.47;;;20.90;99.90;;;;;;5091468;28;20055;-68
2022/08/15 04:55:56;;;;;;;16.83;5.55;;;20.70;99.90;;;;;;5091412;28;20498;-70
2022/08/15 04:58:23;;;;;;;8.55;5.32;;;20.70;99.90;;;;;;5091504;28;20024;-68
2022/08/15 05:01:02;;;;;;;10.23;5.32;;;20.90;99.90;;;;;;5092743;28;20372;-69
2022/08/15 05:03:38;;;;;;;9.35;6.10;;;21.10;99.90;;;;;;5091648;28;20034;-74
2022/08/15 05:06:08;;;;;;;9.95;6.60;;;21.20;99.90;;;;;;5091128;28;20055;-68
2022/08/15 05:08:37;;;;;;;9.00;6.15;;;21.30;99.90;;;;;;5091585;28;20511;-68
2022/08/15 05:11:14;;;;;;;12.35;6.43;;;21.00;99.90;;;;;;5092805;28;20039;-70
2022/08/15 05:13:42;;;;;;;12.65;6.97;;;20.80;99.90;;;;;;5091362;28;20017;-69
2022/08/15 05:16:12;;;;;;;12.15;6.82;;;20.90;99.90;;;;;;5091186;28;20067;-68
2022/08/15 05:18:42;;;;;;;12.52;6.55;;;20.70;99.90;;;;;;5091339;28;20115;-68
2022/08/15 05:21:10;;;;;;;9.70;6.13;;;20.70;99.90;;;;;;5091554;28;20024;-72
2022/08/15 05:23:37;;;;;;;9.90;6.30;;;20.70;99.90;;;;;;5091078;28;20016;-69
2022/08/15 05:26:06;;;;;;;13.30;6.68;;;20.80;99.90;;;;;;5092651;28;20429;-68
2022/08/15 05:28:35;;;;;;;;;;;20.70;99.90;;;;;;5091589;28;20472;-68
2022/08/15 05:31:09;;;;;;;;;;;20.80;99.90;;;;;;5091370;28;20022;-69
2022/08/15 05:33:36;;;;;;;15.70;6.53;;;20.90;99.90;;;;;;5091144;28;19908;-68
2022/08/15 05:36:04;;;;;;;9.13;6.50;;;20.90;99.90;;;;;;5091384;28;20020;-70
2022/08/15 05:38:38;;;;;;;11.80;7.25;;;21.00;99.90;;;;;;5091218;28;20046;-71
2022/08/15 05:41:43;;;;;;;12.60;6.72;;;20.90;99.90;;;;;;5091280;28;20024;-69
2022/08/15 05:44:21;;;;;;;7.53;6.63;;;21.00;99.90;;;;;;5090732;28;20059;-71
2022/08/15 05:47:24;;;;;;;12.05;6.28;;;21.10;99.90;;;;;;5091022;28;20042;-70
2022/08/15 05:50:00;;;;;;;9.20;6.40;;;20.90;99.90;;;;;;5094190;28;20044;-69
2022/08/15 05:52:48;;;;;;;14.20;6.18;;;20.90;99.90;;;;;;5094580;28;20044;-68
2022/08/15 05:55:29;;;;;;;11.00;7.18;;;20.90;99.90;;;;;;5094405;28;20171;-68
2022/08/15 05:58:43;;;;;;;11.02;7.13;;;21.00;99.90;;;;;;5096325;28;20028;-69
2022/08/15 06:01:15;;;;;;;11.50;7.55;;;21.20;99.90;;;;;;5050059;28;20074;-73
2022/08/15 06:03:47;;;;;;;14.02;7.20;;;21.30;99.90;;;;;;5094524;28;20490;-68
2022/08/15 06:06:19;;;;;;;12.80;7.22;;;21.50;99.90;;;;;;5093873;28;20024;-73
2022/08/15 06:08:55;;;;;;;10.65;6.13;;;21.50;99.90;;;;;;5094521;28;20038;-74
2022/08/15 06:11:27;;;;;;;12.50;6.82;;;21.50;99.90;;;;;;5094331;28;20039;-74
2022/08/15 06:14:06;;;;;;;9.85;7.03;;;21.50;99.90;;;;;;5095499;28;20114;-74
2022/08/15 06:16:38;;;;;;;8.55;5.75;;;21.60;99.90;;;;;;5095335;28;20028;-74
2022/08/15 06:19:20;;;;;;;10.30;6.35;;;21.40;99.90;;;;;;5094177;28;20052;-74
2022/08/15 06:22:02;;;;;;;10.05;6.57;;;21.40;99.90;;;;;;5093879;28;20035;-71
2022/08/15 06:24:40;;;;;;;7.68;6.03;;;21.00;99.90;;;;;;5093506;28;20030;-73
2022/08/15 06:27:10;;;;;;;10.68;6.65;;;21.00;99.90;;;;;;5093471;28;20028;-69
2022/08/15 06:29:54;;;;;;;11.90;7.03;;;21.20;99.90;;;;;;5093181;28;20031;-70
2022/08/15 06:32:51;;;;;;;12.73;7.18;;;21.40;99.90;;;;;;5094966;28;20038;-70
2022/08/15 06:35:46;;;;;;;8.35;5.97;;;21.50;99.90;;;;;;5093221;28;20032;-73
2022/08/15 06:38:39;;;;;;;12.35;6.43;;;21.70;99.90;;;;;;5094918;28;20051;-74
2022/08/15 06:41:27;;;;;;;10.30;5.70;;;21.70;99.90;;;;;;5093347;28;20063;-74
2022/08/15 06:43:59;;;;;;;13.43;6.30;;;21.80;99.90;;;;;;5092990;28;20053;-74
2022/08/15 06:46:33;;;;;;;13.85;5.72;;;21.50;99.90;;;;;;5093054;28;20023;-74
2022/08/15 06:49:03;;;;;;;14.25;5.93;;;21.50;99.90;;;;;;5093201;28;20066;-74
2022/08/15 06:51:32;;;;;;;8.43;5.57;;;21.60;99.90;;;;;;5093122;28;20135;-74
2022/08/15 06:53:59;;;;;;;12.45;6.65;;;21.60;99.90;;;;;;5092975;28;20028;-73
2022/08/15 06:56:33;;;;;;;9.65;5.68;;;21.70;99.90;;;;;;5094178;28;20218;-74
2022/08/15 06:59:04;;;;;;;8.35;5.78;;;21.50;99.90;;;;;;5081556;28;20097;-74
2022/08/15 07:01:46;;;;;;;8.90;6.22;;;21.70;99.90;;;;;;5087762;28;20106;-74
2022/08/15 07:04:32;;;;;;;13.05;5.85;;;21.80;99.90;;;;;;5085746;28;20016;-72
2022/08/15 07:07:15;;;;;;;11.00;5.88;;;21.80;99.90;;;;;;5098312;28;20016;-73
2022/08/15 07:10:00;;;;;;;6.88;5.22;;;21.80;99.90;;;;;;5102383;28;20028;-73
2022/08/15 07:12:34;;;;;;;;;;;21.90;99.90;;;;;;5094579;28;20357;-74
2022/08/15 07:15:04;;;;;;;11.73;5.75;;;21.90;99.90;;;;;;5106650;28;20379;-73
2022/08/15 07:17:41;;;;;;;10.27;5.53;;;21.80;99.90;;;;;;5104087;28;20157;-74
2022/08/15 07:20:09;;;;;;;14.60;5.75;;;21.60;99.90;;;;;;5086603;28;20020;-74
2022/08/15 07:22:40;;;;;;;8.48;5.95;;;21.30;99.90;;;;;;5078058;28;20488;-74
2022/08/15 07:25:24;;;;;;;13.73;6.38;;;21.50;99.90;;;;;;5071727;28;20388;-73
2022/08/15 07:28:06;;;;;;;8.20;5.35;;;21.40;99.90;;;;;;5088455;28;20028;-74
2022/08/15 07:30:44;;;;;;;13.60;6.35;;;21.50;99.90;;;;;;5087760;28;20391;-74
2022/08/15 07:33:29;;;;;;;10.30;6.65;;;21.60;99.90;;;;;;5089863;28;20020;-77
2022/08/15 07:36:07;;;;;;;15.18;6.20;;;21.90;99.90;;;;;;5088257;28;20031;-73
2022/08/15 07:38:35;;;;;;;12.13;6.22;;;22.10;99.90;;;;;;5074006;28;20361;-76
2022/08/15 07:41:26;;;;;;;13.20;6.28;;;22.00;99.90;;;;;;5076918;28;20123;-75
2022/08/15 07:44:27;;;;;;;13.77;6.65;;;21.90;99.90;;;;;;5064479;28;20036;-76
2022/08/15 07:47:09;;;;;;;14.15;7.38;;;22.10;99.90;;;;;;5076771;28;20029;-75
2022/08/15 07:49:37;;;;;;;11.95;6.88;;;21.70;99.90;;;;;;5091575;28;20388;-75
2022/08/15 07:52:15;;;;;;;17.45;7.78;;;21.80;99.90;;;;;;5073846;28;20052;-76
2022/08/15 07:54:42;;;;;;;12.00;6.80;;;21.90;99.90;;;;;;5073511;28;20047;-74
2022/08/15 07:57:24;;;;;;;13.30;6.55;;;22.10;99.90;;;;;;5085008;28;20020;-75
2022/08/15 08:00:08;;;;;;;15.07;7.57;;;22.00;99.90;;;;;;5068861;28;20400;-76
2022/08/15 08:02:57;;;;;;;12.02;7.70;;;22.10;99.90;;;;;;5072252;28;20441;-77
2022/08/15 08:05:27;;;;;;;9.20;7.57;;;22.20;99.90;;;;;;5080816;28;20035;-76
2022/08/15 08:07:56;;;;;;;10.63;7.18;;;22.40;99.90;;;;;;5086002;28;20024;-75
2022/08/15 08:10:32;;;;;;;15.93;8.63;;;22.40;99.90;;;;;;5072634;28;20071;-75
2022/08/15 08:13:01;;;;;;;18.15;7.03;;;22.60;99.90;;;;;;5075666;28;20805;-75
2022/08/15 08:15:30;;;;;;;11.65;8.20;;;22.60;99.90;;;;;;5072037;28;20032;-75
2022/08/15 08:18:08;;;;;;;12.80;7.57;;;22.60;99.90;;;;;;5054179;28;20028;-75
2022/08/15 08:20:41;;;;;;;16.77;7.68;;;22.70;99.90;;;;;;5083788;28;20023;-75
2022/08/15 08:23:39;;;;;;;9.70;7.55;;;22.60;99.90;;;;;;5074056;28;20052;-76
2022/08/15 08:26:30;;;;;;;8.68;7.10;;;22.80;99.90;;;;;;5083447;28;20060;-76
2022/08/15 08:29:03;;;;;;;14.77;7.90;;;22.70;99.90;;;;;;5092124;28;20028;-77
2022/08/15 08:31:56;;;;;;;14.02;7.90;;;22.50;99.90;;;;;;5054315;28;20586;-78
2022/08/15 08:34:36;;;;;;;12.23;8.18;;;22.60;99.90;;;;;;5088640;28;20028;-78
2022/08/15 08:37:10;;;;;;;8.15;6.90;;;22.50;99.90;;;;;;5078154;28;20102;-77
2022/08/15 08:39:39;;;;;;;20.67;8.75;;;22.50;99.90;;;;;;5081718;28;20036;-77
2022/08/15 08:42:13;;;;;;;16.02;7.68;;;22.70;99.90;;;;;;5080832;28;20017;-76
2022/08/15 08:44:45;;;;;;;13.50;8.38;;;22.70;99.90;;;;;;5076797;28;20033;-77
2022/08/15 08:47:37;;;;;;;10.65;8.27;;;22.80;99.90;;;;;;5076810;28;20016;-78
2022/08/15 08:50:17;;;;;;;13.18;8.80;;;22.60;99.90;;;;;;5078629;28;20043;-78
2022/08/15 08:53:11;;;;;;;15.73;8.32;;;22.80;99.90;;;;;;5075808;28;20035;-76
2022/08/15 08:55:50;;;;;;;12.68;8.05;;;23.20;99.90;;;;;;5076602;28;20102;-77
2022/08/15 08:58:33;;;;;;;14.27;8.93;;;23.20;99.90;;;;;;5077883;28;20469;-76
2022/08/15 09:00:59;;;;;;;11.90;8.73;;;23.30;99.90;;;;;;5101475;28;20033;-77
2022/08/15 09:03:37;;;;;;;12.85;8.70;;;23.10;99.90;;;;;;5079729;28;20039;-76
2022/08/15 09:06:04;;;;;;;13.38;8.52;;;23.10;99.90;;;;;;5076887;28;20016;-78
2022/08/15 09:08:36;;;;;;;13.45;8.18;;;23.30;99.90;;;;;;5080984;28;20039;-78
2022/08/15 09:11:22;;;;;;;13.00;9.68;;;23.20;99.90;;;;;;5076724;28;20036;-77
2022/08/15 09:13:49;;;;;;;12.07;8.23;;;23.20;99.90;;;;;;5075530;28;20051;-78
2022/08/15 09:16:30;;;;;;;13.05;8.57;;;23.30;99.90;;;;;;5078170;28;20070;-76
2022/08/15 09:19:27;;;;;;;12.57;8.40;;;23.50;99.90;;;;;;5083939;28;20016;-76
2022/08/15 09:21:53;;;;;;;17.17;9.05;;;23.50;99.90;;;;;;5073257;28;20045;-78
2022/08/15 09:24:21;;;;;;;12.55;7.68;;;23.50;99.90;;;;;;5078397;28;20103;-77
2022/08/15 09:27:08;;;;;;;13.40;8.38;;;23.40;99.90;;;;;;5078303;28;20033;-78
2022/08/15 09:29:50;;;;;;;13.65;8.00;;;23.50;99.90;;;;;;5091627;28;20458;-77
2022/08/15 09:32:24;;;;;;;11.15;7.32;;;23.40;99.90;;;;;;5082551;28;20438;-77
2022/08/15 09:35:04;;;;;;;12.93;8.23;;;23.80;99.90;;;;;;5087844;28;20060;-76
2022/08/15 09:37:52;;;;;;;16.58;7.68;;;23.90;99.90;;;;;;5088500;28;20032;-76
2022/08/15 09:40:36;;;;;;;10.38;6.78;;;23.90;99.90;;;;;;5088616;28;20028;-78
2022/08/15 09:43:17;;;;;;;11.90;7.22;;;24.10;99.90;;;;;;5083487;28;20028;-76
2022/08/15 09:45:58;;;;;;;15.45;7.63;;;24.20;99.90;;;;;;5079638;28;20032;-76
2022/08/15 09:48:56;;;;;;;15.43;7.55;;;24.10;99.90;;;;;;5079124;28;20482;-77
2022/08/15 09:51:36;;;;;;;13.02;6.97;;;24.30;99.90;;;;;;5077727;28;20053;-77
2022/08/15 09:54:16;;;;;;;11.73;6.28;;;24.50;99.90;;;;;;5080453;28;20027;-77
2022/08/15 09:56:43;;;;;;;15.00;7.72;;;24.30;99.90;;;;;;5077537;28;20078;-78
2022/08/15 09:59:21;;;;;;;14.13;6.88;;;24.50;99.90;;;;;;5079877;28;20012;-78
2022/08/15 10:01:58;;;;;;;8.30;6.53;;;24.70;99.90;;;;;;5078850;28;20044;-78
2022/08/15 10:05:02;;;;;;;10.52;6.32;;;24.80;99.90;;;;;;5076779;28;20020;-77
2022/08/15 10:07:45;;;;;;;10.38;5.38;;;25.60;99.90;;;;;;5083912;28;20028;-78
2022/08/15 10:10:42;;;;;;;6.55;5.25;;;25.80;99.90;;;;;;5095088;28;20093;-77
2022/08/15 10:13:09;;;;;;;12.38;5.88;;;25.20;99.90;;;;;;5083491;28;20048;-77
2022/08/15 10:15:41;;;;;;;7.80;5.03;;;25.60;99.90;;;;;;5094141;28;20020;-77
2022/08/15 10:18:09;;;;;;;7.35;5.50;;;26.20;99.90;;;;;;5095106;28;20074;-77
2022/08/15 10:20:40;;;;;;;8.50;5.53;;;26.30;99.90;;;;;;5093309;28;20449;-78
2022/08/15 10:23:13;;;;;;;7.90;5.07;;;26.50;99.90;;;;;;5094237;28;20399;-78
2022/08/15 10:26:08;;;;;;;11.00;5.18;;;26.20;99.90;;;;;;5095150;28;20377;-78
2022/08/15 10:28:36;;;;;;;7.28;4.28;;;26.10;99.90;;;;;;5094571;28;20032;-78
2022/08/15 10:31:04;;;;;;;10.73;4.40;;;26.40;99.90;;;;;;5095111;28;20093;-77
2022/08/15 10:33:33;;;;;;;8.13;4.28;;;26.20;99.90;;;;;;5094835;28;20051;-77
2022/08/15 10:36:14;;;;;;;11.07;4.20;;;26.40;99.90;;;;;;5093567;28;20028;-77
2022/08/15 10:38:44;;;;;;;6.22;4.13;;;25.80;99.90;;;;;;5094950;28;20027;-75
2022/08/15 10:41:30;;;;;;;7.72;3.55;;;25.90;99.90;;;;;;5095113;28;20020;-76
2022/08/15 10:44:06;;;;;;;8.38;4.15;;;26.30;99.90;;;;;;5094994;28;20032;-76
2022/08/15 10:46:44;;;;;;;7.95;3.83;;;26.00;99.90;;;;;;5097362;28;20024;-76
2022/08/15 10:49:46;;;;;;;8.60;4.00;;;25.80;99.90;;;;;;5104346;28;20334;-78
2022/08/15 10:52:12;;;;;;;;;;;26.30;99.90;;;;;;5093952;28;20066;-75
2022/08/15 10:54:46;;;;;;;7.53;3.97;;;26.40;99.90;;;;;;5094563;28;19939;-77
2022/08/15 10:57:18;;;;;;;9.73;4.18;;;26.20;99.90;;;;;;5094413;28;20032;-74
2022/08/15 10:59:48;;;;;;;8.50;4.47;;;26.30;99.90;;;;;;5073271;28;20040;-77
2022/08/15 11:02:21;;;;;;;8.23;4.45;;;26.40;99.90;;;;;;5087431;28;20464;-76
2022/08/15 11:04:48;;;;;;;10.77;5.10;;;26.30;99.90;;;;;;5093482;28;20043;-78
2022/08/15 11:07:21;;;;;;;11.25;4.90;;;26.30;99.90;;;;;;5080327;28;20038;-78
2022/08/15 11:09:54;;;;;;;9.38;4.65;;;26.10;99.90;;;;;;5073689;28;20043;-77
2022/08/15 11:12:20;;;;;;;8.65;5.05;;;26.40;99.90;;;;;;5077368;28;20037;-75
2022/08/15 11:14:58;;;;;;;9.90;4.72;;;26.20;99.90;;;;;;5075238;28;20025;-78
2022/08/15 11:17:29;;;;;;;9.50;4.20;;;26.20;99.90;;;;;;5079487;28;20111;-77
2022/08/15 11:20:04;;;;;;;17.63;6.68;;;26.30;99.90;;;;;;5077827;28;20416;-78
2022/08/15 11:22:32;;;;;;;16.80;10.77;;;26.60;99.90;;;;;;5075041;28;20093;-78
2022/08/15 11:25:06;;;;;;;8.18;4.70;;;27.10;99.90;;;;;;5074475;28;20031;-78
2022/08/15 11:27:32;;;;;;;7.38;4.53;;;27.00;99.90;;;;;;5083507;28;20046;-78
2022/08/15 11:29:58;;;;;;;13.02;5.70;;;27.20;99.90;;;;;;5079100;28;20045;-77
2022/08/15 11:32:31;;;;;;;10.05;5.25;;;27.80;99.90;;;;;;5074139;28;20033;-78
2022/08/15 11:35:03;;;;;;;9.43;4.15;;;28.50;99.90;;;;;;5075193;28;20031;-78
2022/08/15 11:37:42;;;;;;;10.15;4.60;;;28.10;99.90;;;;;;5087291;28;20052;-78
2022/08/15 11:40:32;;;;;;;8.15;4.03;;;28.00;99.90;;;;;;5078364;28;20473;-77
2022/08/15 11:43:01;;;;;;;8.80;4.20;;;28.40;99.90;;;;;;5076243;28;20074;-77
2022/08/15 11:45:32;;;;;;;12.70;4.85;;;28.00;99.90;;;;;;5072555;28;20020;-78
2022/08/15 11:47:59;;;;;;;5.50;3.63;;;27.80;99.90;;;;;;5070828;28;20027;-77
2022/08/15 11:50:33;;;;;;;6.82;4.13;;;28.10;99.50;;;;;;5086258;28;20047;-77
2022/08/15 11:53:02;;;;;;;7.45;3.83;;;28.20;99.00;;;;;;5075697;28;20036;-78
2022/08/15 11:55:32;;;;;;;5.55;3.60;;;28.00;99.30;;;;;;5079139;28;20422;-78
2022/08/15 11:58:13;;;;;;;7.70;3.70;;;28.90;98.80;;;;;;5076501;28;20055;-76
2022/08/15 12:00:50;;;;;;;8.38;3.83;;;29.00;98.10;;;;;;5079576;28;20368;-77
2022/08/15 12:03:32;;;;;;;8.38;4.07;;;28.80;97.50;;;;;;5075208;28;20071;-76
2022/08/15 12:06:13;;;;;;;;;;;28.80;97.50;;;;;;5087969;28;20093;-77
2022/08/15 12:08:41;;;;;;;7.97;4.13;;;28.50;98.40;;;;;;5092212;28;19916;-78
2022/08/15 12:11:17;;;;;;;9.75;3.72;;;28.50;98.00;;;;;;5092612;28;20426;-79
2022/08/15 12:14:11;;;;;;;6.38;3.35;;;29.10;97.80;;;;;;5092943;28;20020;-78
2022/08/15 12:16:52;;;;;;;8.63;4.28;;;29.40;96.80;;;;;;5092906;28;20036;-78
2022/08/15 12:19:37;;;;;;;8.67;4.07;;;29.30;96.80;;;;;;5086020;28;20036;-77
2022/08/15 12:22:17;;;;;;;9.25;3.58;;;29.40;97.20;;;;;;5071544;28;20047;-77
2022/08/15 12:24:45;;;;;;;11.38;3.50;;;29.40;95.50;;;;;;5075978;28;20033;-78
2022/08/15 12:27:12;;;;;;;6.45;3.85;;;29.10;95.90;;;;;;5090611;28;20020;-76
2022/08/15 12:29:40;;;;;;;7.65;3.85;;;28.50;96.70;;;;;;5090247;28;20046;-78
2022/08/15 12:32:08;;;;;;;6.18;3.67;;;28.30;95.90;;;;;;5076681;28;20476;-77
2022/08/15 12:34:46;;;;;;;7.97;4.00;;;28.00;96.50;;;;;;5081316;28;20488;-77
2022/08/15 12:37:22;;;;;;;8.68;4.53;;;28.50;96.70;;;;;;5074963;28;20032;-78
2022/08/15 12:40:00;;;;;;;9.65;4.25;;;29.00;96.30;;;;;;5083660;28;20476;-78
2022/08/15 12:42:30;;;;;;;10.10;3.70;;;29.00;95.60;;;;;;5074484;28;20086;-77
2022/08/15 12:45:00;;;;;;;6.85;3.85;;;29.10;96.10;;;;;;5095713;28;20028;-79
2022/08/15 12:47:29;;;;;;;7.68;3.72;;;29.40;95.10;;;;;;5086101;28;20066;-77
2022/08/15 12:49:56;;;;;;;12.40;4.00;;;29.20;95.50;;;;;;5077843;28;20429;-75
2022/08/15 12:52:22;;;;;;;6.13;3.60;;;29.30;95.50;;;;;;5084176;28;20040;-77
2022/08/15 12:54:51;;;;;;;7.03;4.40;;;28.80;95.70;;;;;;5079209;28;20385;-78
2022/08/15 12:57:18;;;;;;;13.95;7.25;;;29.00;95.90;;;;;;5072385;28;20072;-73
2022/08/15 12:59:44;;;;;;;16.23;7.05;;;29.00;95.60;;;;;;5084096;28;20024;-73
2022/08/15 13:02:11;;;;;;;13.05;5.28;;;29.20;95.00;;;;;;5104190;28;20469;-76
2022/08/15 13:04:47;;;;;;;12.07;3.92;;;30.00;95.10;;;;;;5092347;28;20058;-76
2022/08/15 13:07:14;;;;;;;9.07;3.53;;;30.60;92.60;;;;;;5094810;28;20024;-76
2022/08/15 13:09:41;;;;;;;6.95;3.28;;;30.10;91.50;;;;;;5090092;28;20095;-76
2022/08/15 13:12:07;;;;;;;6.53;3.92;;;30.40;92.90;;;;;;5089731;28;20377;-74
2022/08/15 13:14:32;;;;;;;9.57;3.63;;;30.80;92.90;;;;;;5095675;28;20380;-76
2022/08/15 13:16:59;;;;;;;9.77;3.78;;;30.90;92.20;;;;;;5083211;28;20032;-76
2022/08/15 13:19:29;;;;;;;8.02;3.20;;;31.70;91.60;;;;;;5086602;28;20150;-75